Time;durP1;ratioP1;P1;durP2;ratioP2;P2;SDS_P1;SDS_P2;PMS_P1;PMS_P2;Temp;Humidity;BMP_temperature;BMP_pressure;BME280_temperature;BME280_humidity;BME280_pressure;Samples;Min_cycle;Max_cycle;Signal;HPM_P1;HPM_P2
2022/05/11 00:00:57;;;;;;;7.70;3.85;;;;;;;12.50;56.11;100458.41;5087001;28;20025;-28
2022/05/11 00:03:23;;;;;;;6.50;3.40;;;;;;;12.40;57.12;100459.75;5086874;28;20036;-28
2022/05/11 00:05:48;;;;;;;5.70;2.80;;;;;;;11.88;57.07;100447.63;5086797;28;20031;-30
2022/05/11 00:08:14;;;;;;;5.60;2.70;;;;;;;12.02;57.18;100458.03;5086807;28;20032;-29
2022/05/11 00:10:40;;;;;;;4.90;2.38;;;;;;;11.79;57.83;100452.41;5086699;28;20028;-28
2022/05/11 00:13:06;;;;;;;6.50;3.00;;;;;;;11.64;58.36;100455.41;5085413;28;20039;-30
2022/05/11 00:15:32;;;;;;;4.47;2.17;;;;;;;11.47;58.83;100444.44;5085208;28;20039;-31
2022/05/11 00:17:58;;;;;;;5.90;2.60;;;;;;;11.45;58.29;100441.16;5086921;28;20477;-29
2022/05/11 00:20:24;;;;;;;6.15;2.25;;;;;;;11.65;58.41;100460.53;5085311;28;20035;-32
2022/05/11 00:22:59;;;;;;;4.38;2.40;;;;;;;11.53;58.65;100450.78;5085078;28;20034;-30
2022/05/11 00:25:25;;;;;;;4.55;2.22;;;;;;;11.56;59.21;100456.47;5086845;28;20086;-28
2022/05/11 00:27:56;;;;;;;4.78;2.38;;;;;;;11.61;59.02;100435.28;5085141;28;20475;-31
2022/05/11 00:30:23;;;;;;;5.15;2.58;;;;;;;11.48;59.83;100448.72;5085066;28;20518;-29
2022/05/11 00:32:53;;;;;;;6.18;2.60;;;;;;;11.13;60.92;100449.13;5084997;28;20115;-28
2022/05/11 00:35:18;;;;;;;5.13;2.50;;;;;;;10.97;61.52;100446.94;5086273;28;20051;-31
2022/05/11 00:37:44;;;;;;;5.55;2.63;;;;;;;10.76;61.79;100432.88;5086412;28;20500;-29
2022/05/11 00:40:10;;;;;;;6.50;2.92;;;;;;;11.23;60.71;100446.81;5103769;28;20449;-34
2022/05/11 00:42:35;;;;;;;5.47;2.42;;;;;;;11.04;60.70;100448.56;5106837;28;20499;-29
2022/05/11 00:45:02;;;;;;;14.07;3.35;;;;;;;10.89;60.04;100434.69;5088749;28;20040;-30
2022/05/11 00:47:42;;;;;;;5.57;2.70;;;;;;;11.08;59.88;100446.28;5089400;28;20020;-31
2022/05/11 00:50:12;;;;;;;7.22;2.92;;;;;;;10.91;61.05;100434.44;5092008;28;20032;-28
2022/05/11 00:53:11;;;;;;;7.68;2.92;;;;;;;10.99;60.93;100442.22;5092131;28;20027;-28
2022/05/11 00:55:41;;;;;;;9.68;3.05;;;;;;;11.04;59.76;100445.06;5091645;28;20032;-30
2022/05/11 00:58:14;;;;;;;5.72;2.95;;;;;;;11.09;60.72;100452.44;5092028;28;20031;-29
2022/05/11 01:00:42;;;;;;;6.15;2.55;;;;;;;10.71;60.75;100430.03;5110115;28;20027;-30
2022/05/11 01:03:13;;;;;;;6.95;2.83;;;;;;;10.80;61.51;100438.59;5092009;28;20032;-28
2022/05/11 01:05:41;;;;;;;5.47;3.00;;;;;;;10.72;61.15;100420.16;5110128;28;20034;-28
2022/05/11 01:08:07;;;;;;;6.10;2.78;;;;;;;10.80;60.95;100438.59;5091694;28;20028;-30
2022/05/11 01:10:33;;;;;;;7.82;3.22;;;;;;;10.62;62.03;100442.78;5091651;28;20035;-28
2022/05/11 01:13:01;;;;;;;7.15;3.05;;;;;;;10.44;62.79;100439.94;5109784;28;20083;-28
2022/05/11 01:15:31;;;;;;;6.15;2.72;;;;;;;10.51;62.50;100434.59;5109974;28;20031;-30
2022/05/11 01:17:57;;;;;;;7.03;2.80;;;;;;;10.53;61.41;100393.34;5110161;28;20023;-30
2022/05/11 01:20:25;;;;;;;6.03;2.90;;;;;;;10.78;61.67;100433.47;5109791;28;20103;-31
2022/05/11 01:23:04;;;;;;;8.45;3.05;;;;;;;10.57;62.04;100433.75;5110128;28;20091;-32
2022/05/11 01:25:30;;;;;;;7.18;3.20;;;;;;;10.71;61.59;100424.69;5090954;28;20066;-32
2022/05/11 01:28:05;;;;;;;6.70;3.28;;;;;;;10.81;61.39;100435.72;5091409;28;20051;-28
2022/05/11 01:30:30;;;;;;;6.25;2.95;;;;;;;10.73;61.23;100443.97;5091316;28;20032;-30
2022/05/11 01:32:57;;;;;;;7.90;3.15;;;;;;;10.51;61.46;100454.09;5109309;28;20046;-28
2022/05/11 01:35:22;;;;;;;7.40;3.20;;;;;;;10.42;61.95;100448.16;5074461;28;20027;-31
2022/05/11 01:38:25;;;;;;;8.75;3.00;;;;;;;10.38;62.44;100448.75;5109093;28;20534;-33
2022/05/11 01:40:51;;;;;;;6.80;2.67;;;;;;;10.44;62.38;100445.25;5052028;28;20142;-31
2022/05/11 01:43:21;;;;;;;6.07;2.70;;;;;;;10.55;61.25;100415.31;5091080;28;20111;-32
2022/05/11 01:45:47;;;;;;;30.98;4.50;;;;;;;10.65;61.35;100420.19;5109385;28;20042;-29
2022/05/11 01:48:12;;;;;;;5.07;3.15;;;;;;;10.93;60.58;100440.41;5090837;28;20023;-34
2022/05/11 01:50:38;;;;;;;7.65;3.10;;;;;;;10.69;61.30;100442.75;5109294;28;20027;-30
2022/05/11 01:53:05;;;;;;;11.75;3.30;;;;;;;10.67;61.61;100442.16;5109436;28;20023;-27
2022/05/11 01:55:31;;;;;;;7.43;3.22;;;;;;;10.69;60.57;100448.09;5090756;28;20028;-28
2022/05/11 01:57:57;;;;;;;7.13;3.00;;;;;;;10.63;60.80;100443.59;5108745;28;20046;-28
2022/05/11 02:00:22;;;;;;;6.20;3.05;;;;;;;10.63;60.83;100454.25;5109330;28;20036;-29
2022/05/11 02:02:49;;;;;;;5.80;2.58;;;;;;;10.18;61.84;100438.94;5109068;28;20085;-31
2022/05/11 02:07:58;;;;;;;6.55;3.25;;;;;;;10.24;62.00;100450.63;5108979;28;20116;-28
2022/05/11 02:10:25;;;;;;;8.45;3.33;;;;;;;10.47;62.53;100454.72;5109215;28;20035;-34
2022/05/11 02:12:51;;;;;;;7.47;3.15;;;;;;;9.70;64.45;100430.34;5090550;28;20027;-28
2022/05/11 02:15:18;;;;;;;6.22;3.00;;;;;;;9.35;65.25;100423.31;5108872;28;20035;-30
2022/05/11 02:17:45;;;;;;;8.73;3.55;;;;;;;9.88;64.17;100427.06;5090155;28;20031;-32
2022/05/11 02:20:12;;;;;;;7.50;3.05;;;;;;;9.98;63.25;100425.63;5108873;28;20028;-29
2022/05/11 02:22:38;;;;;;;9.75;3.08;;;;;;;9.85;63.48;100428.31;5108747;28;20529;-29
2022/05/11 02:25:04;;;;;;;5.50;2.95;;;;;;;9.97;63.60;100447.97;5108753;28;20032;-34
2022/05/11 02:27:33;;;;;;;6.70;3.38;;;;;;;9.69;64.48;100452.69;5089984;28;20028;-40
2022/05/11 02:30:00;;;;;;;6.68;3.13;;;;;;;9.62;64.78;100442.00;5108264;28;20059;-29
2022/05/11 02:32:26;;;;;;;6.75;3.35;;;;;;;9.52;65.92;100434.44;5090207;28;20027;-28
2022/05/11 02:35:12;;;;;;;5.55;2.95;;;;;;;9.75;64.31;100436.69;5090119;28;20032;-32
2022/05/11 02:37:43;;;;;;;7.22;3.75;;;;;;;9.32;66.35;100446.88;5107825;28;20047;-29
2022/05/11 02:40:09;;;;;;;6.50;2.90;;;;;;;8.87;67.90;100425.22;5086182;28;20052;-28
2022/05/11 02:42:35;;;;;;;7.85;3.50;;;;;;;8.85;68.60;100439.56;5086531;28;20180;-29
2022/05/11 02:45:01;;;;;;;7.13;3.47;;;;;;;8.87;67.87;100423.41;5088123;28;20516;-31
2022/05/11 02:47:27;;;;;;;7.65;3.53;;;;;;;9.34;65.57;100442.19;5086416;28;20024;-28
2022/05/11 02:49:52;;;;;;;6.50;3.35;;;;;;;8.92;66.29;100425.47;5087555;28;20028;-30
2022/05/11 02:52:18;;;;;;;9.00;4.78;;;;;;;9.03;65.61;100446.16;5087950;28;20016;-35
2022/05/11 02:54:46;;;;;;;8.52;4.55;;;;;;;8.75;66.26;100452.41;5087664;28;20050;-31
2022/05/11 02:57:12;;;;;;;;;;;;;;;8.81;67.63;100448.94;5087992;28;20039;-29
2022/05/11 02:59:38;;;;;;;9.73;3.25;;;;;;;8.61;68.33;100430.22;5087912;28;19912;-29
2022/05/11 03:02:03;;;;;;;8.02;3.60;;;;;;;8.71;68.53;100451.16;5087474;28;20389;-30
2022/05/11 03:04:29;;;;;;;6.35;3.42;;;;;;;8.83;67.84;100448.75;5087694;28;20028;-28
2022/05/11 03:06:55;;;;;;;11.40;4.07;;;;;;;8.74;67.64;100429.47;5087426;28;20039;-31
2022/05/11 03:09:20;;;;;;;8.77;3.70;;;;;;;8.56;69.18;100415.88;5087253;28;20032;-31
2022/05/11 03:11:46;;;;;;;8.55;3.35;;;;;;;8.66;68.97;100411.03;5086499;28;20027;-29
2022/05/11 03:14:12;;;;;;;10.10;3.38;;;;;;;8.64;69.05;100444.97;5086132;28;20024;-31
2022/05/11 03:16:38;;;;;;;7.15;3.75;;;;;;;8.74;68.51;100440.09;5085935;28;20028;-31
2022/05/11 03:19:05;;;;;;;8.07;3.60;;;;;;;8.52;69.11;100404.84;5085852;28;20028;-28
2022/05/11 03:21:32;;;;;;;8.43;4.03;;;;;;;8.78;68.81;100422.72;5087238;28;20084;-31
2022/05/11 03:23:57;;;;;;;7.95;4.20;;;;;;;8.71;69.13;100435.19;5085661;28;20517;-33
2022/05/11 03:26:23;;;;;;;11.38;4.47;;;;;;;8.70;69.28;100446.84;5087024;28;20050;-32
2022/05/11 03:28:49;;;;;;;10.68;4.25;;;;;;;8.78;68.17;100446.66;5087293;28;20084;-28
2022/05/11 03:31:15;;;;;;;13.63;4.78;;;;;;;8.69;69.37;100453.19;5087026;28;20042;-28
2022/05/11 03:36:25;;;;;;;12.07;4.75;;;;;;;8.66;70.41;100458.88;5087391;28;20121;-32
2022/05/11 03:38:51;;;;;;;15.23;4.07;;;;;;;8.75;71.03;100468.34;5085116;28;20534;-30
2022/05/11 03:41:17;;;;;;;19.65;4.57;;;;;;;8.59;70.75;100463.34;5086066;28;20059;-33
2022/05/11 03:43:43;;;;;;;13.90;4.65;;;;;;;8.58;70.81;100464.34;5085500;28;20115;-28
2022/05/11 03:46:09;;;;;;;13.60;3.95;;;;;;;8.29;72.33;100457.41;5085767;28;20585;-33
2022/05/11 03:48:35;;;;;;;18.92;5.05;;;;;;;8.36;72.03;100460.94;5087178;28;20499;-28
2022/05/11 03:51:00;;;;;;;24.02;5.95;;;;;;;8.48;71.61;100461.22;5086978;28;20024;-28
2022/05/11 03:53:26;;;;;;;33.80;5.53;;;;;;;9.00;69.15;100460.69;5086805;28;20067;-30
2022/05/11 03:55:52;;;;;;;19.15;4.75;;;;;;;8.62;71.19;100447.00;5086992;28;20032;-28
2022/05/11 03:58:18;;;;;;;12.07;4.63;;;;;;;8.81;70.27;100456.94;5085656;28;20028;-29
2022/05/11 04:00:43;;;;;;;10.98;4.47;;;;;;;9.10;69.31;100455.00;5086837;28;20403;-31
2022/05/11 04:03:09;;;;;;;11.88;5.78;;;;;;;9.55;68.04;100475.78;5086944;28;20040;-30
2022/05/11 04:05:34;;;;;;;14.88;5.80;;;;;;;9.63;67.63;100472.94;5086347;28;20230;-32
2022/05/11 04:08:00;;;;;;;12.35;4.75;;;;;;;9.79;67.79;100477.06;5086695;28;20468;-29
2022/05/11 04:10:26;;;;;;;15.98;4.95;;;;;;;10.23;65.92;100481.75;5086878;28;20117;-30
2022/05/11 04:12:52;;;;;;;8.00;4.65;;;;;;;9.92;65.79;100438.94;5086905;28;20032;-31
2022/05/11 04:15:17;;;;;;;13.60;6.43;;;;;;;10.04;65.97;100478.09;5087131;28;20028;-31
2022/05/11 04:17:44;;;;;;;16.25;6.40;;;;;;;9.97;65.73;100476.44;5084991;28;20024;-29
2022/05/11 04:20:13;;;;;;;9.57;4.80;;;;;;;10.20;65.55;100478.72;5085255;28;20424;-29
2022/05/11 04:22:39;;;;;;;8.52;4.80;;;;;;;10.08;65.69;100456.38;5088287;28;20027;-28
2022/05/11 04:25:05;;;;;;;6.80;3.83;;;;;;;10.30;66.09;100471.16;5089775;28;20031;-30
2022/05/11 04:27:32;;;;;;;8.73;3.85;;;;;;;10.38;65.39;100462.94;5089202;28;20114;-28
2022/05/11 04:29:58;;;;;;;9.13;3.83;;;;;;;10.55;65.29;100481.16;5089312;28;20093;-29
2022/05/11 04:32:23;;;;;;;7.55;4.03;;;;;;;10.75;64.48;100467.78;5090591;28;20536;-30
2022/05/11 04:34:50;;;;;;;9.30;4.00;;;;;;;10.71;65.61;100491.38;5090439;28;20024;-31
2022/05/11 04:37:15;;;;;;;9.00;3.47;;;;;;;10.98;65.67;100485.97;5090261;28;20044;-31
2022/05/11 04:39:41;;;;;;;9.13;4.13;;;;;;;10.96;64.79;100458.66;5103475;28;20483;-29
2022/05/11 04:42:08;;;;;;;8.18;4.05;;;;;;;11.30;65.24;100491.34;5092481;28;20031;-29
2022/05/11 04:44:33;;;;;;;7.18;3.80;;;;;;;11.31;65.20;100487.66;5092135;28;20059;-29
2022/05/11 04:46:59;;;;;;;11.52;4.38;;;;;;;11.23;66.03;100476.19;5092344;28;20023;-29
2022/05/11 04:49:25;;;;;;;9.57;3.53;;;;;;;11.33;66.38;100469.56;5110511;28;20051;-29
2022/05/11 04:51:58;;;;;;;7.82;3.60;;;;;;;11.63;65.48;100497.34;5110162;28;20032;-31
2022/05/11 04:54:24;;;;;;;8.77;3.70;;;;;;;11.61;66.00;100494.06;5076239;28;20039;-30
2022/05/11 04:56:49;;;;;;;8.93;3.67;;;;;;;11.76;65.68;100508.97;5092133;28;20472;-30
2022/05/11 04:59:15;;;;;;;7.50;3.95;;;;;;;11.96;64.70;100507.00;5091969;28;20122;-29
2022/05/11 05:01:40;;;;;;;9.98;4.00;;;;;;;12.19;64.41;100510.94;5110178;28;20066;-30
2022/05/11 05:04:06;;;;;;;9.77;4.22;;;;;;;12.17;64.16;100502.31;5110300;28;20104;-28
2022/05/11 05:06:36;;;;;;;11.20;5.25;;;;;;;12.16;63.05;100512.22;5092154;28;20893;-29
2022/05/11 05:09:03;;;;;;;7.97;4.57;;;;;;;12.02;63.54;100495.44;5092132;28;20074;-28
2022/05/11 05:11:29;;;;;;;10.57;5.00;;;;;;;12.24;62.98;100514.59;5092020;28;20034;-40
2022/05/11 05:13:54;;;;;;;9.77;4.75;;;;;;;12.33;62.65;100500.97;5091843;28;20024;-28
2022/05/11 05:16:20;;;;;;;7.03;4.18;;;;;;;12.27;62.01;100505.31;5110216;28;20020;-32
2022/05/11 05:18:45;;;;;;;8.70;4.50;;;;;;;12.21;62.91;100519.56;5091736;28;20506;-32
2022/05/11 05:21:11;;;;;;;9.25;4.55;;;;;;;12.19;62.85;100514.44;5110352;28;20468;-34
2022/05/11 05:23:36;;;;;;;8.93;4.63;;;;;;;12.53;61.91;100490.88;5091612;28;20479;-29
2022/05/11 05:26:03;;;;;;;8.80;4.00;;;;;;;12.56;61.03;100516.38;5110163;28;20031;-29
2022/05/11 05:31:16;;;;;;;10.65;5.03;;;;;;;12.64;61.20;100529.47;5110155;28;20046;-29
2022/05/11 05:33:42;;;;;;;10.73;4.70;;;;;;;12.77;60.53;100513.28;5108938;28;20471;-29
2022/05/11 05:36:10;;;;;;;9.95;4.53;;;;;;;13.12;61.78;100515.38;5091276;28;20100;-31
2022/05/11 05:38:38;;;;;;;9.65;4.32;;;;;;;12.85;61.00;100504.13;5109228;28;20051;-34
2022/05/11 05:41:05;;;;;;;8.70;4.20;;;;;;;13.22;59.92;100526.38;5109761;28;20019;-30
2022/05/11 05:43:30;;;;;;;9.38;4.80;;;;;;;13.47;59.23;100528.13;5090999;28;20040;-29
2022/05/11 05:45:56;;;;;;;8.35;4.70;;;;;;;13.94;58.30;100522.13;5109389;28;20487;-29
2022/05/11 05:48:22;;;;;;;11.27;3.92;;;;;;;14.06;57.99;100526.44;5109568;28;20042;-33
2022/05/11 05:50:49;;;;;;;8.50;4.35;;;;;;;14.18;56.92;100534.53;5091056;28;20020;-30
2022/05/11 05:53:19;;;;;;;8.25;4.05;;;;;;;14.56;57.39;100540.53;5091032;28;20076;-31
2022/05/11 05:55:48;;;;;;;7.47;4.13;;;;;;;14.27;57.61;100524.25;5108920;28;20088;-29
2022/05/11 05:58:15;;;;;;;7.65;4.00;;;;;;;14.49;56.84;100534.44;5090701;28;20036;-31
2022/05/11 06:00:41;;;;;;;8.73;3.50;;;;;;;14.53;55.49;100541.78;5090382;28;20489;-29
2022/05/11 06:03:06;;;;;;;6.85;3.70;;;;;;;14.45;56.54;100534.88;5109204;28;20499;-31
2022/05/11 06:05:32;;;;;;;7.45;3.88;;;;;;;14.44;56.80;100530.59;5108770;28;20027;-31
2022/05/11 06:07:58;;;;;;;6.95;3.63;;;;;;;14.63;55.33;100543.91;5109097;28;20059;-29
2022/05/11 06:10:25;;;;;;;7.30;4.03;;;;;;;14.90;55.08;100536.19;5090436;28;20035;-36
2022/05/11 06:12:51;;;;;;;7.10;3.43;;;;;;;14.70;53.49;100525.00;5108992;28;20124;-29
2022/05/11 06:15:17;;;;;;;6.68;3.85;;;;;;;14.91;54.81;100542.38;5090274;28;20268;-29
2022/05/11 06:17:42;;;;;;;8.02;3.90;;;;;;;15.14;52.57;100542.34;5108600;28;20023;-29
2022/05/11 06:20:09;;;;;;;6.88;3.78;;;;;;;15.24;53.07;100526.41;5108602;28;20503;-29
2022/05/11 06:22:36;;;;;;;10.38;3.63;;;;;;;15.50;52.71;100529.59;5108553;28;20027;-28
2022/05/11 06:25:03;;;;;;;154.18;16.15;;;;;;;15.53;51.44;100523.75;5108659;28;20503;-29
2022/05/11 06:27:29;;;;;;;7.45;3.50;;;;;;;15.76;51.97;100546.22;5089584;28;20443;-34
2022/05/11 06:30:00;;;;;;;6.25;3.03;;;;;;;15.70;50.45;100547.16;5108873;28;20034;-32
2022/05/11 06:32:27;;;;;;;6.03;3.10;;;;;;;15.70;49.74;100534.53;5089935;28;20042;-29
2022/05/11 06:34:53;;;;;;;5.40;3.10;;;;;;;16.00;49.99;100550.44;5089909;28;20024;-30
2022/05/11 06:37:21;;;;;;;5.57;3.00;;;;;;;15.81;50.22;100524.78;5089846;28;20039;-33
2022/05/11 06:39:47;;;;;;;7.97;3.10;;;;;;;16.11;50.18;100540.66;5089372;28;20082;-30
2022/05/11 06:42:13;;;;;;;6.00;3.30;;;;;;;16.43;49.54;100543.59;5089326;28;20019;-33
2022/05/11 06:44:40;;;;;;;7.20;2.95;;;;;;;16.11;49.33;100519.13;5089840;28;20032;-33
2022/05/11 06:47:06;;;;;;;5.15;3.20;;;;;;;16.52;49.54;100535.09;5089581;28;20388;-29
2022/05/11 06:49:32;;;;;;;5.88;3.00;;;;;;;16.86;48.69;100541.25;5089285;28;20419;-32
2022/05/11 06:51:58;;;;;;;7.60;3.35;;;;;;;16.82;49.71;100540.13;5089497;28;20690;-32
2022/05/11 06:59:54;;;;;;;6.88;2.90;;;;;;;16.97;47.88;100539.50;5107630;28;20050;-30
2022/05/11 07:02:20;;;;;;;4.82;2.83;;;;;;;16.79;47.87;100524.41;5089316;28;20578;-31
2022/05/11 07:04:46;;;;;;;6.63;3.20;;;;;;;16.82;48.00;100532.84;5107946;28;20122;-28
2022/05/11 07:07:11;;;;;;;5.15;2.65;;;;;;;17.21;48.84;100522.03;5107471;28;20023;-30
2022/05/11 07:09:37;;;;;;;6.45;2.63;;;;;;;17.33;46.35;100534.56;5107513;28;20024;-33
2022/05/11 07:12:19;;;;;;;6.38;2.83;;;;;;;17.40;47.22;100513.59;5107525;28;20024;-29
2022/05/11 07:14:50;;;;;;;5.80;2.97;;;;;;;17.47;46.96;100515.03;5089152;28;20116;-31
2022/05/11 07:17:35;;;;;;;6.18;2.92;;;;;;;17.85;45.64;100531.34;5089324;28;20032;-30
2022/05/11 07:20:06;;;;;;;7.28;3.30;;;;;;;17.86;46.21;100533.81;5089359;28;20114;-34
2022/05/11 07:22:31;;;;;;;6.13;2.72;;;;;;;18.33;45.25;100526.06;5089282;28;20046;-33
2022/05/11 07:24:57;;;;;;;4.72;2.63;;;;;;;18.65;45.24;100526.84;5107633;28;20020;-30
2022/05/11 07:27:23;;;;;;;7.25;3.22;;;;;;;18.89;44.87;100528.34;5089004;28;20088;-35
2022/05/11 07:29:50;;;;;;;5.70;2.97;;;;;;;18.92;44.10;100527.78;5088567;28;20408;-34
2022/05/11 07:32:16;;;;;;;6.68;2.72;;;;;;;18.74;42.89;100520.94;5088565;28;20028;-30
2022/05/11 07:34:41;;;;;;;8.65;3.40;;;;;;;19.09;44.81;100517.63;5107036;28;20030;-36
2022/05/11 07:37:07;;;;;;;7.28;2.67;;;;;;;18.98;43.34;100510.53;5107367;28;20029;-29
2022/05/11 07:39:33;;;;;;;14.65;3.65;;;;;;;19.51;45.10;100519.34;5106659;28;20040;-32
2022/05/11 07:41:59;;;;;;;6.43;2.72;;;;;;;19.32;42.90;100526.34;5107212;28;20031;-28
2022/05/11 07:44:25;;;;;;;8.25;3.00;;;;;;;19.06;42.49;100518.13;5107160;28;20100;-31
2022/05/11 07:46:51;;;;;;;10.75;3.13;;;;;;;18.99;42.26;100533.78;5088737;28;20028;-30
2022/05/11 07:49:18;;;;;;;5.20;2.78;;;;;;;18.99;43.57;100528.38;5088963;28;20555;-30
2022/05/11 07:51:45;;;;;;;8.15;3.13;;;;;;;18.99;43.03;100528.38;5106905;28;20110;-30
2022/05/11 07:54:12;;;;;;;4.85;2.80;;;;;;;19.45;43.47;100532.06;5088616;28;20126;-35
2022/05/11 07:59:56;;;;;;;5.40;2.67;;;;;;;20.18;41.77;100520.25;5023494;28;20163;-29
2022/05/11 08:02:27;;;;;;;6.05;2.50;;;;;;;20.69;40.27;100527.53;5099297;28;20035;-34
2022/05/11 08:04:57;;;;;;;10.05;2.78;;;;;;;20.78;39.02;100515.03;5107140;28;20053;-29
2022/05/11 08:07:26;;;;;;;6.82;3.00;;;;;;;21.02;40.04;100511.69;5107001;28;20058;-37
2022/05/11 08:09:53;;;;;;;8.15;2.97;;;;;;;21.16;37.94;100515.41;5106516;28;20062;-33
2022/05/11 08:12:19;;;;;;;6.65;2.63;;;;;;;20.74;39.93;100518.56;5088485;28;20081;-29
2022/05/11 08:14:44;;;;;;;5.53;2.55;;;;;;;20.53;38.65;100510.44;5106977;28;20040;-31
2022/05/11 08:17:10;;;;;;;6.90;2.70;;;;;;;20.99;38.72;100514.97;5106835;28;20112;-31
2022/05/11 08:19:35;;;;;;;6.20;2.50;;;;;;;20.92;38.24;100500.88;5106575;28;20415;-30
2022/05/11 08:22:01;;;;;;;6.18;2.72;;;;;;;21.19;38.45;100495.09;5088294;28;20104;-35
2022/05/11 08:24:27;;;;;;;9.18;2.67;;;;;;;21.34;37.26;100495.00;5106891;28;20036;-30
2022/05/11 08:26:53;;;;;;;5.90;2.45;;;;;;;21.59;38.22;100509.53;5088504;28;20576;-33
2022/05/11 08:34:50;;;;;;;5.03;2.15;;;;;;;22.19;37.43;100504.72;5106545;28;20038;-30
2022/05/11 08:37:16;;;;;;;7.03;2.25;;;;;;;22.11;34.79;100515.34;5107043;28;20127;-29
2022/05/11 08:39:42;;;;;;;6.15;2.33;;;;;;;22.20;35.69;100500.09;5088133;28;20083;-29
2022/05/11 08:42:08;;;;;;;7.90;2.72;;;;;;;22.60;36.78;100508.97;5088132;28;20032;-33
2022/05/11 08:44:37;;;;;;;5.97;2.10;;;;;;;22.79;33.74;100500.84;5088146;28;20036;-29
2022/05/11 08:47:08;;;;;;;6.25;2.28;;;;;;;22.75;33.94;100514.22;5088041;28;20118;-31
2022/05/11 08:49:46;;;;;;;8.75;2.60;;;;;;;22.30;34.21;100516.31;5088126;28;20035;-32
2022/05/11 08:52:33;;;;;;;3.90;2.20;;;;;;;22.22;34.82;100519.63;5088121;28;20397;-30
2022/05/11 08:55:33;;;;;;;5.65;2.50;;;;;;;23.08;36.60;100514.38;5087944;28;20043;-31
2022/05/11 08:58:06;;;;;;;6.22;2.38;;;;;;;23.07;34.39;100507.34;5106862;28;20035;-33
2022/05/11 09:00:32;;;;;;;4.00;2.15;;;;;;;22.98;35.78;100511.78;5087896;28;20040;-33
2022/05/11 09:03:10;;;;;;;10.82;4.35;;;;;;;23.29;35.37;100508.69;5106989;28;20127;-34
2022/05/11 09:05:35;;;;;;;;;;;;;;;23.53;35.44;100503.97;5088192;28;20035;-29
2022/05/11 09:08:05;;;;;;;9.73;2.92;;;;;;;23.73;33.61;100508.31;5087810;28;19912;-32
2022/05/11 09:10:35;;;;;;;9.68;2.35;;;;;;;23.08;33.48;100487.19;5110012;28;20023;-31
2022/05/11 09:13:13;;;;;;;5.88;2.30;;;;;;;23.17;35.11;100485.44;5091352;28;20032;-36
2022/05/11 09:15:53;;;;;;;3.40;2.00;;;;;;;23.51;34.43;100500.75;5109501;28;20544;-32
2022/05/11 09:18:36;;;;;;;10.43;2.63;;;;;;;23.24;33.06;100499.47;5109667;28;20032;-30
2022/05/11 09:21:11;;;;;;;5.45;2.28;;;;;;;23.38;33.35;100487.88;5091733;28;20430;-29
2022/05/11 09:23:43;;;;;;;12.07;2.33;;;;;;;23.55;33.52;100500.97;5091336;28;20268;-29
2022/05/11 09:26:14;;;;;;;5.32;2.42;;;;;;;23.50;32.74;100485.53;5091111;28;20054;-31
2022/05/11 09:28:45;;;;;;;4.30;2.08;;;;;;;24.24;32.06;100501.22;5091025;28;20032;-33
2022/05/11 09:31:28;;;;;;;6.95;2.65;;;;;;;24.25;29.13;100502.84;5091201;28;20522;-29
2022/05/11 09:33:59;;;;;;;5.53;2.40;;;;;;;24.74;30.63;100504.13;5109375;28;20407;-34
2022/05/11 09:36:41;;;;;;;5.65;2.42;;;;;;;24.50;29.40;100498.88;5091014;28;20032;-32
2022/05/11 09:39:17;;;;;;;5.47;2.25;;;;;;;24.74;27.82;100512.31;5087231;28;20102;-30
2022/05/11 09:41:49;;;;;;;3.53;2.28;;;;;;;24.71;27.12;100496.56;5087584;28;20062;-31
2022/05/11 09:44:49;;;;;;;7.75;3.33;;;;;;;25.16;28.66;100499.44;5089039;28;20028;-29
2022/05/11 09:47:34;;;;;;;6.20;2.78;;;;;;;25.30;29.55;100504.13;5053984;28;20089;-40
2022/05/11 09:50:22;;;;;;;6.53;2.95;;;;;;;25.19;30.08;100495.28;5088824;28;20028;-31
2022/05/11 09:52:48;;;;;;;7.78;2.95;;;;;;;25.30;27.71;100493.19;5088527;28;20032;-31
2022/05/11 09:55:32;;;;;;;5.85;3.42;;;;;;;25.35;29.62;100490.34;5087184;28;20477;-34
2022/05/11 09:58:00;;;;;;;6.93;3.15;;;;;;;25.63;29.35;100491.84;5086834;28;20119;-32
2022/05/11 10:00:38;;;;;;;7.68;3.35;;;;;;;25.55;28.90;100468.00;5087230;28;20028;-32
2022/05/11 10:03:14;;;;;;;7.32;3.00;;;;;;;26.02;27.96;100492.31;5087154;28;20039;-31
2022/05/11 10:05:44;;;;;;;8.10;3.33;;;;;;;26.24;26.73;100472.34;5088476;28;20484;-32
2022/05/11 10:08:31;;;;;;;4.88;2.65;;;;;;;26.33;26.75;100486.84;5086978;28;20032;-31
2022/05/11 10:11:16;;;;;;;5.00;3.17;;;;;;;26.48;27.44;100482.06;5087108;28;20035;-31
2022/05/11 10:21:49;;;;;;;6.70;3.22;;;;;;;26.78;27.21;100481.25;5086945;28;20119;-30
2022/05/11 10:22:33;;;;;;;5.43;3.40;;;;;;;26.65;27.33;100454.81;5088315;28;20035;-31
2022/05/11 10:25:19;;;;;;;7.78;2.80;;;;;;;26.74;27.06;100458.38;5086411;28;20055;-35
2022/05/11 10:28:23;;;;;;;13.65;3.80;;;;;;;27.08;27.52;100456.84;5086580;28;20137;-30
2022/05/11 10:31:06;;;;;;;5.75;3.10;;;;;;;27.39;28.40;100444.97;5025084;28;20037;-35
2022/05/11 10:33:58;;;;;;;5.22;2.85;;;;;;;27.34;29.61;100434.97;5008103;28;20029;-30
2022/05/11 10:36:33;;;;;;;5.65;3.28;;;;;;;27.55;25.85;100462.50;5072861;28;20044;-32
2022/05/11 10:39:04;;;;;;;5.43;2.90;;;;;;;27.51;26.25;100458.81;5086220;28;20051;-37
2022/05/11 10:42:03;;;;;;;7.03;3.05;;;;;;;27.17;26.95;100459.56;5086205;28;20032;-35
2022/05/11 10:44:50;;;;;;;8.35;3.03;;;;;;;27.15;27.50;100454.41;5088188;28;20050;-34
2022/05/11 10:47:38;;;;;;;4.97;2.80;;;;;;;27.11;29.06;100444.44;5086308;28;20042;-32
2022/05/11 10:50:16;;;;;;;6.05;2.70;;;;;;;27.24;28.46;100444.31;5085961;28;20043;-33
2022/05/11 10:52:50;;;;;;;6.93;2.55;;;;;;;27.42;27.66;100434.16;5087836;28;20035;-29
2022/05/11 10:55:34;;;;;;;7.93;4.30;;;;;;;27.45;28.32;100432.72;5087488;28;20077;-33
2022/05/11 10:58:45;;;;;;;6.35;3.03;;;;;;;27.77;29.02;100433.31;5085913;28;20055;-31
2022/05/11 11:01:14;;;;;;;8.88;3.13;;;;;;;27.94;26.95;100432.50;5087458;28;20035;-32
2022/05/11 11:04:14;;;;;;;12.55;3.92;;;;;;;28.26;26.41;100425.59;5087306;28;20032;-30
2022/05/11 11:07:16;;;;;;;7.47;3.03;;;;;;;28.61;26.35;100433.69;5087048;28;20661;-31
2022/05/11 11:09:50;;;;;;;8.85;5.35;;;;;;;28.51;25.49;100415.66;5085815;28;20027;-30
2022/05/11 11:12:34;;;;;;;23.63;14.88;;;;;;;28.63;25.93;100420.44;5087494;28;20039;-33
2022/05/11 11:15:05;;;;;;;7.57;5.38;;;;;;;28.72;25.85;100415.69;5086906;28;20108;-32
2022/05/11 11:17:33;;;;;;;5.97;3.00;;;;;;;28.56;26.79;100414.66;5085995;28;20059;-31
2022/05/11 11:20:01;;;;;;;;;;;;;;;28.37;26.49;100418.59;5086326;28;20027;-30
2022/05/11 11:22:26;;;;;;;5.03;3.17;;;;;;;28.07;27.69;100414.22;5085891;28;19965;-32
2022/05/11 11:25:11;;;;;;;5.15;3.28;;;;;;;27.78;27.01;100418.47;5087270;28;20039;-41
2022/05/11 11:28:01;;;;;;;7.72;3.00;;;;;;;27.76;27.21;100421.53;5085227;28;20032;-30
2022/05/11 11:30:26;;;;;;;7.25;3.17;;;;;;;27.96;27.02;100417.31;5085452;28;20024;-32
2022/05/11 11:33:13;;;;;;;6.97;3.20;;;;;;;28.44;27.71;100413.41;5086715;28;20042;-32
2022/05/11 11:35:56;;;;;;;15.25;4.40;;;;;;;28.36;28.10;100422.50;5085465;28;20115;-29
2022/05/11 11:38:39;;;;;;;6.40;3.47;;;;;;;28.37;26.68;100428.78;5087560;28;20580;-31
2022/05/11 11:41:31;;;;;;;8.77;3.50;;;;;;;28.56;29.34;100414.66;5089274;28;20028;-29
2022/05/11 11:44:26;;;;;;;5.57;2.97;;;;;;;28.54;27.17;100422.41;5107553;28;20554;-38
2022/05/11 11:46:53;;;;;;;6.50;2.83;;;;;;;28.42;27.59;100418.44;5089125;28;20031;-29
2022/05/11 11:49:18;;;;;;;3.97;2.60;;;;;;;28.22;26.63;100416.44;5088970;28;20023;-31
2022/05/11 11:51:53;;;;;;;8.90;3.85;;;;;;;28.67;25.68;100415.91;5107160;28;20030;-29
2022/05/11 11:54:37;;;;;;;6.18;3.08;;;;;;;28.97;27.51;100416.66;5088737;28;20027;-31
2022/05/11 11:57:12;;;;;;;7.72;2.95;;;;;;;28.99;28.37;100411.63;5088668;28;20487;-32
2022/05/11 11:59:50;;;;;;;6.90;3.90;;;;;;;29.35;26.93;100390.19;5107021;28;20818;-31
2022/05/11 12:02:41;;;;;;;7.70;3.75;;;;;;;29.75;26.47;100389.63;5106963;28;20073;-34
2022/05/11 12:05:25;;;;;;;6.38;2.97;;;;;;;29.42;25.66;100391.25;5106986;28;20039;-30
2022/05/11 12:16:29;;;;;;;8.13;3.45;;;;;;;29.18;26.58;100372.75;5107271;28;20049;-34
2022/05/11 12:19:13;;;;;;;5.68;2.88;;;;;;;30.02;24.76;100358.75;5088359;28;20096;-31